sensor_id;sensor_type;location;lat;lon;timestamp;P1;durP1;ratioP1;P2;durP2;ratioP2
18503;SDS011;9381;54.244;10.074;2024-01-11T00:02:50;33.27;;;18.17;;
18503;SDS011;9381;54.244;10.074;2024-01-11T00:07:50;32.70;;;18.30;;
18503;SDS011;9381;54.244;10.074;2024-01-11T00:12:50;39.77;;;21.43;;
18503;SDS011;9381;54.244;10.074;2024-01-11T00:17:51;42.07;;;22.07;;
18503;SDS011;9381;54.244;10.074;2024-01-11T00:22:51;44.90;;;22.30;;
18503;SDS011;9381;54.244;10.074;2024-01-11T00:27:51;46.55;;;23.45;;
18503;SDS011;9381;54.244;10.074;2024-01-11T00:32:52;43.77;;;21.90;;
18503;SDS011;9381;54.244;10.074;2024-01-11T00:37:52;38.58;;;20.38;;
18503;SDS011;9381;54.244;10.074;2024-01-11T00:42:52;36.30;;;19.97;;
18503;SDS011;9381;54.244;10.074;2024-01-11T00:47:53;33.60;;;18.57;;
18503;SDS011;9381;54.244;10.074;2024-01-11T00:52:53;32.40;;;18.07;;
18503;SDS011;9381;54.244;10.074;2024-01-11T00:57:53;27.60;;;16.63;;
18503;SDS011;9381;54.244;10.074;2024-01-11T01:02:55;26.53;;;15.90;;
18503;SDS011;9381;54.244;10.074;2024-01-11T01:07:56;25.37;;;15.87;;
18503;SDS011;9381;54.244;10.074;2024-01-11T01:12:56;21.50;;;13.47;;
18503;SDS011;9381;54.244;10.074;2024-01-11T01:17:56;18.83;;;12.03;;
18503;SDS011;9381;54.244;10.074;2024-01-11T01:22:57;20.20;;;11.67;;
18503;SDS011;9381;54.244;10.074;2024-01-11T01:27:58;18.35;;;11.35;;
18503;SDS011;9381;54.244;10.074;2024-01-11T01:32:59;21.50;;;12.37;;
18503;SDS011;9381;54.244;10.074;2024-01-11T01:38:00;18.07;;;11.03;;
18503;SDS011;9381;54.244;10.074;2024-01-11T01:43:00;23.10;;;11.93;;
18503;SDS011;9381;54.244;10.074;2024-01-11T01:48:01;20.13;;;11.27;;
18503;SDS011;9381;54.244;10.074;2024-01-11T01:53:02;24.40;;;11.27;;
18503;SDS011;9381;54.244;10.074;2024-01-11T01:58:03;21.43;;;12.47;;
18503;SDS011;9381;54.244;10.074;2024-01-11T02:03:04;18.27;;;11.13;;
18503;SDS011;9381;54.244;10.074;2024-01-11T02:08:05;24.73;;;11.03;;
18503;SDS011;9381;54.244;10.074;2024-01-11T02:13:09;16.33;;;10.37;;
18503;SDS011;9381;54.244;10.074;2024-01-11T02:18:12;15.50;;;10.00;;
18503;SDS011;9381;54.244;10.074;2024-01-11T02:23:14;19.63;;;11.20;;
18503;SDS011;9381;54.244;10.074;2024-01-11T02:28:17;19.87;;;10.67;;
18503;SDS011;9381;54.244;10.074;2024-01-11T02:33:18;25.10;;;11.70;;
18503;SDS011;9381;54.244;10.074;2024-01-11T02:38:18;27.70;;;11.33;;
18503;SDS011;9381;54.244;10.074;2024-01-11T02:43:19;17.47;;;10.30;;
18503;SDS011;9381;54.244;10.074;2024-01-11T02:48:19;22.43;;;10.40;;
18503;SDS011;9381;54.244;10.074;2024-01-11T02:53:19;21.00;;;9.60;;
18503;SDS011;9381;54.244;10.074;2024-01-11T02:58:20;19.43;;;10.63;;
18503;SDS011;9381;54.244;10.074;2024-01-11T03:03:20;21.93;;;10.70;;
18503;SDS011;9381;54.244;10.074;2024-01-11T03:08:21;20.53;;;10.47;;
18503;SDS011;9381;54.244;10.074;2024-01-11T03:13:21;18.27;;;10.90;;
18503;SDS011;9381;54.244;10.074;2024-01-11T03:18:21;17.27;;;10.60;;
18503;SDS011;9381;54.244;10.074;2024-01-11T03:23:22;19.92;;;10.73;;
18503;SDS011;9381;54.244;10.074;2024-01-11T03:28:22;34.63;;;12.00;;
18503;SDS011;9381;54.244;10.074;2024-01-11T03:33:22;18.83;;;11.47;;
18503;SDS011;9381;54.244;10.074;2024-01-11T03:38:23;22.83;;;11.90;;
18503;SDS011;9381;54.244;10.074;2024-01-11T03:43:23;22.67;;;10.57;;
18503;SDS011;9381;54.244;10.074;2024-01-11T03:48:23;27.27;;;11.27;;
18503;SDS011;9381;54.244;10.074;2024-01-11T03:53:24;18.17;;;10.67;;
18503;SDS011;9381;54.244;10.074;2024-01-11T03:58:24;22.20;;;9.53;;
18503;SDS011;9381;54.244;10.074;2024-01-11T04:03:24;56.13;;;10.57;;
18503;SDS011;9381;54.244;10.074;2024-01-11T04:08:25;29.20;;;9.40;;
18503;SDS011;9381;54.244;10.074;2024-01-11T04:13:25;36.63;;;10.37;;
18503;SDS011;9381;54.244;10.074;2024-01-11T04:18:25;25.37;;;10.07;;
18503;SDS011;9381;54.244;10.074;2024-01-11T04:23:26;29.10;;;9.40;;
18503;SDS011;9381;54.244;10.074;2024-01-11T04:28:26;24.30;;;9.83;;
18503;SDS011;9381;54.244;10.074;2024-01-11T04:33:26;57.47;;;9.57;;
18503;SDS011;9381;54.244;10.074;2024-01-11T04:38:27;30.20;;;7.90;;
18503;SDS011;9381;54.244;10.074;2024-01-11T04:43:27;21.97;;;8.07;;
18503;SDS011;9381;54.244;10.074;2024-01-11T04:48:27;26.57;;;7.33;;
18503;SDS011;9381;54.244;10.074;2024-01-11T04:53:28;20.87;;;5.50;;
18503;SDS011;9381;54.244;10.074;2024-01-11T04:58:28;16.23;;;5.97;;
18503;SDS011;9381;54.244;10.074;2024-01-11T05:03:28;12.38;;;5.30;;
18503;SDS011;9381;54.244;10.074;2024-01-11T05:08:30;29.47;;;6.17;;
18503;SDS011;9381;54.244;10.074;2024-01-11T05:13:30;48.60;;;7.33;;
18503;SDS011;9381;54.244;10.074;2024-01-11T05:18:30;16.03;;;5.27;;
18503;SDS011;9381;54.244;10.074;2024-01-11T05:23:31;23.00;;;5.50;;
18503;SDS011;9381;54.244;10.074;2024-01-11T05:28:31;19.05;;;5.47;;
18503;SDS011;9381;54.244;10.074;2024-01-11T05:33:31;21.75;;;6.05;;
18503;SDS011;9381;54.244;10.074;2024-01-11T05:38:32;8.17;;;4.53;;
18503;SDS011;9381;54.244;10.074;2024-01-11T05:43:33;11.97;;;5.50;;
18503;SDS011;9381;54.244;10.074;2024-01-11T05:48:33;9.20;;;5.50;;
18503;SDS011;9381;54.244;10.074;2024-01-11T05:53:34;9.13;;;4.27;;
18503;SDS011;9381;54.244;10.074;2024-01-11T05:58:35;10.00;;;5.30;;
18503;SDS011;9381;54.244;10.074;2024-01-11T06:03:39;12.83;;;5.10;;
18503;SDS011;9381;54.244;10.074;2024-01-11T06:08:39;10.33;;;3.80;;
18503;SDS011;9381;54.244;10.074;2024-01-11T06:13:41;14.73;;;4.03;;
18503;SDS011;9381;54.244;10.074;2024-01-11T06:18:41;9.07;;;4.23;;
18503;SDS011;9381;54.244;10.074;2024-01-11T06:23:42;13.48;;;4.25;;
18503;SDS011;9381;54.244;10.074;2024-01-11T06:28:43;54.17;;;5.50;;
18503;SDS011;9381;54.244;10.074;2024-01-11T06:33:43;9.80;;;3.50;;
18503;SDS011;9381;54.244;10.074;2024-01-11T06:38:44;13.75;;;3.53;;
18503;SDS011;9381;54.244;10.074;2024-01-11T06:43:44;10.83;;;3.43;;
18503;SDS011;9381;54.244;10.074;2024-01-11T06:48:44;10.53;;;3.57;;
18503;SDS011;9381;54.244;10.074;2024-01-11T06:53:45;13.53;;;3.80;;
18503;SDS011;9381;54.244;10.074;2024-01-11T06:58:45;15.63;;;5.23;;
18503;SDS011;9381;54.244;10.074;2024-01-11T07:03:46;14.00;;;5.37;;
18503;SDS011;9381;54.244;10.074;2024-01-11T07:08:46;17.43;;;5.20;;
18503;SDS011;9381;54.244;10.074;2024-01-11T07:13:46;10.63;;;4.47;;
18503;SDS011;9381;54.244;10.074;2024-01-11T07:18:47;11.87;;;5.47;;
18503;SDS011;9381;54.244;10.074;2024-01-11T07:23:47;10.30;;;6.10;;
18503;SDS011;9381;54.244;10.074;2024-01-11T07:28:47;19.67;;;6.93;;
18503;SDS011;9381;54.244;10.074;2024-01-11T07:33:48;13.80;;;6.80;;
18503;SDS011;9381;54.244;10.074;2024-01-11T07:38:48;11.60;;;6.10;;
18503;SDS011;9381;54.244;10.074;2024-01-11T07:43:49;14.30;;;5.97;;
18503;SDS011;9381;54.244;10.074;2024-01-11T07:48:49;12.25;;;5.95;;
18503;SDS011;9381;54.244;10.074;2024-01-11T07:53:49;19.50;;;6.00;;
18503;SDS011;9381;54.244;10.074;2024-01-11T07:58:50;13.45;;;6.53;;
18503;SDS011;9381;54.244;10.074;2024-01-11T08:03:50;13.03;;;5.73;;
18503;SDS011;9381;54.244;10.074;2024-01-11T08:08:52;17.20;;;6.80;;
18503;SDS011;9381;54.244;10.074;2024-01-11T08:13:52;18.03;;;6.60;;
18503;SDS011;9381;54.244;10.074;2024-01-11T08:18:54;14.60;;;6.73;;
18503;SDS011;9381;54.244;10.074;2024-01-11T08:23:55;15.90;;;6.60;;
18503;SDS011;9381;54.244;10.074;2024-01-11T08:28:55;16.63;;;6.90;;
18503;SDS011;9381;54.244;10.074;2024-01-11T08:33:55;15.50;;;6.90;;
18503;SDS011;9381;54.244;10.074;2024-01-11T08:38:56;17.23;;;7.47;;
18503;SDS011;9381;54.244;10.074;2024-01-11T08:43:56;13.68;;;7.13;;
18503;SDS011;9381;54.244;10.074;2024-01-11T08:48:56;15.30;;;7.57;;
18503;SDS011;9381;54.244;10.074;2024-01-11T08:53:57;19.83;;;7.60;;
18503;SDS011;9381;54.244;10.074;2024-01-11T08:58:57;13.43;;;6.60;;
18503;SDS011;9381;54.244;10.074;2024-01-11T09:03:58;16.47;;;6.97;;
18503;SDS011;9381;54.244;10.074;2024-01-11T09:08:59;17.93;;;7.27;;
18503;SDS011;9381;54.244;10.074;2024-01-11T09:13:59;14.07;;;7.47;;
18503;SDS011;9381;54.244;10.074;2024-01-11T09:18:59;16.13;;;7.57;;
18503;SDS011;9381;54.244;10.074;2024-01-11T09:24:00;17.27;;;8.40;;
18503;SDS011;9381;54.244;10.074;2024-01-11T09:29:00;17.87;;;7.47;;
18503;SDS011;9381;54.244;10.074;2024-01-11T09:34:00;13.93;;;7.22;;
18503;SDS011;9381;54.244;10.074;2024-01-11T09:39:01;13.73;;;7.03;;
18503;SDS011;9381;54.244;10.074;2024-01-11T09:44:01;19.10;;;7.90;;
18503;SDS011;9381;54.244;10.074;2024-01-11T09:49:04;17.47;;;7.97;;
18503;SDS011;9381;54.244;10.074;2024-01-11T09:54:06;13.47;;;7.47;;
18503;SDS011;9381;54.244;10.074;2024-01-11T09:59:07;18.23;;;8.90;;
18503;SDS011;9381;54.244;10.074;2024-01-11T10:04:09;29.30;;;19.33;;
18503;SDS011;9381;54.244;10.074;2024-01-11T10:09:12;17.30;;;10.27;;
18503;SDS011;9381;54.244;10.074;2024-01-11T10:14:13;18.57;;;9.97;;
18503;SDS011;9381;54.244;10.074;2024-01-11T10:19:13;11.97;;;7.53;;
18503;SDS011;9381;54.244;10.074;2024-01-11T10:24:19;11.63;;;7.00;;
18503;SDS011;9381;54.244;10.074;2024-01-11T10:29:27;13.90;;;7.60;;
18503;SDS011;9381;54.244;10.074;2024-01-11T10:34:30;14.73;;;7.33;;
18503;SDS011;9381;54.244;10.074;2024-01-11T10:39:30;21.73;;;14.97;;
18503;SDS011;9381;54.244;10.074;2024-01-11T10:44:34;18.97;;;12.50;;
18503;SDS011;9381;54.244;10.074;2024-01-11T10:49:37;14.67;;;8.20;;
18503;SDS011;9381;54.244;10.074;2024-01-11T10:54:41;9.13;;;6.97;;
18503;SDS011;9381;54.244;10.074;2024-01-11T10:59:42;12.00;;;7.73;;
18503;SDS011;9381;54.244;10.074;2024-01-11T11:04:44;14.37;;;7.30;;
18503;SDS011;9381;54.244;10.074;2024-01-11T11:09:46;13.77;;;7.13;;
18503;SDS011;9381;54.244;10.074;2024-01-11T11:14:49;18.30;;;8.00;;
18503;SDS011;9381;54.244;10.074;2024-01-11T11:19:51;15.07;;;6.93;;
18503;SDS011;9381;54.244;10.074;2024-01-11T11:25:02;12.43;;;6.57;;
18503;SDS011;9381;54.244;10.074;2024-01-11T11:30:05;12.97;;;6.90;;
18503;SDS011;9381;54.244;10.074;2024-01-11T11:35:06;13.30;;;7.83;;
18503;SDS011;9381;54.244;10.074;2024-01-11T11:40:09;12.10;;;7.17;;
18503;SDS011;9381;54.244;10.074;2024-01-11T11:45:13;15.43;;;7.30;;
18503;SDS011;9381;54.244;10.074;2024-01-11T11:50:25;16.33;;;8.37;;
18503;SDS011;9381;54.244;10.074;2024-01-11T11:55:25;13.50;;;6.70;;
18503;SDS011;9381;54.244;10.074;2024-01-11T12:00:25;17.10;;;8.17;;
18503;SDS011;9381;54.244;10.074;2024-01-11T12:05:30;18.93;;;7.70;;
18503;SDS011;9381;54.244;10.074;2024-01-11T12:10:30;16.43;;;7.47;;
18503;SDS011;9381;54.244;10.074;2024-01-11T12:15:31;16.20;;;7.63;;
18503;SDS011;9381;54.244;10.074;2024-01-11T12:20:31;15.83;;;7.57;;
18503;SDS011;9381;54.244;10.074;2024-01-11T12:25:31;14.18;;;8.13;;
18503;SDS011;9381;54.244;10.074;2024-01-11T12:30:31;14.63;;;7.83;;
18503;SDS011;9381;54.244;10.074;2024-01-11T12:35:32;19.77;;;7.80;;
18503;SDS011;9381;54.244;10.074;2024-01-11T12:40:33;13.40;;;6.63;;
18503;SDS011;9381;54.244;10.074;2024-01-11T12:45:35;12.60;;;6.57;;
18503;SDS011;9381;54.244;10.074;2024-01-11T12:50:36;14.00;;;6.23;;
18503;SDS011;9381;54.244;10.074;2024-01-11T12:55:37;15.23;;;6.07;;
18503;SDS011;9381;54.244;10.074;2024-01-11T13:00:37;15.77;;;7.37;;
18503;SDS011;9381;54.244;10.074;2024-01-11T13:05:38;12.87;;;6.67;;
18503;SDS011;9381;54.244;10.074;2024-01-11T13:10:39;15.97;;;6.80;;
18503;SDS011;9381;54.244;10.074;2024-01-11T13:15:39;20.47;;;7.23;;
18503;SDS011;9381;54.244;10.074;2024-01-11T13:20:40;21.33;;;6.27;;
18503;SDS011;9381;54.244;10.074;2024-01-11T13:25:41;22.57;;;6.90;;
18503;SDS011;9381;54.244;10.074;2024-01-11T13:30:42;17.37;;;5.80;;
18503;SDS011;9381;54.244;10.074;2024-01-11T13:35:43;17.37;;;5.97;;
18503;SDS011;9381;54.244;10.074;2024-01-11T13:40:44;20.50;;;6.33;;
18503;SDS011;9381;54.244;10.074;2024-01-11T13:45:45;18.37;;;6.13;;
18503;SDS011;9381;54.244;10.074;2024-01-11T13:50:45;19.40;;;5.60;;
18503;SDS011;9381;54.244;10.074;2024-01-11T13:55:45;16.43;;;6.13;;
18503;SDS011;9381;54.244;10.074;2024-01-11T14:00:46;16.97;;;6.07;;
18503;SDS011;9381;54.244;10.074;2024-01-11T14:05:46;26.00;;;8.43;;
18503;SDS011;9381;54.244;10.074;2024-01-11T14:10:47;17.00;;;7.20;;
18503;SDS011;9381;54.244;10.074;2024-01-11T14:15:47;16.50;;;6.67;;
18503;SDS011;9381;54.244;10.074;2024-01-11T14:20:48;19.23;;;6.03;;
18503;SDS011;9381;54.244;10.074;2024-01-11T14:25:49;17.00;;;6.23;;
18503;SDS011;9381;54.244;10.074;2024-01-11T14:30:49;18.83;;;7.40;;
18503;SDS011;9381;54.244;10.074;2024-01-11T14:35:50;16.70;;;5.43;;
18503;SDS011;9381;54.244;10.074;2024-01-11T14:40:50;15.43;;;6.03;;
18503;SDS011;9381;54.244;10.074;2024-01-11T14:45:50;19.52;;;6.22;;
18503;SDS011;9381;54.244;10.074;2024-01-11T14:50:51;18.08;;;6.68;;
18503;SDS011;9381;54.244;10.074;2024-01-11T14:55:51;16.25;;;6.90;;
18503;SDS011;9381;54.244;10.074;2024-01-11T15:00:52;19.33;;;6.70;;
18503;SDS011;9381;54.244;10.074;2024-01-11T15:05:52;17.50;;;6.77;;
18503;SDS011;9381;54.244;10.074;2024-01-11T15:10:53;17.90;;;6.80;;
18503;SDS011;9381;54.244;10.074;2024-01-11T15:15:54;20.27;;;7.53;;
18503;SDS011;9381;54.244;10.074;2024-01-11T15:20:55;21.80;;;7.47;;
18503;SDS011;9381;54.244;10.074;2024-01-11T15:25:56;21.13;;;7.60;;
18503;SDS011;9381;54.244;10.074;2024-01-11T15:30:57;21.53;;;7.63;;
18503;SDS011;9381;54.244;10.074;2024-01-11T15:35:57;17.67;;;6.82;;
18503;SDS011;9381;54.244;10.074;2024-01-11T15:40:57;18.03;;;7.33;;
18503;SDS011;9381;54.244;10.074;2024-01-11T15:45:58;14.63;;;7.37;;
18503;SDS011;9381;54.244;10.074;2024-01-11T15:50:59;20.27;;;7.43;;
18503;SDS011;9381;54.244;10.074;2024-01-11T15:55:59;14.60;;;7.47;;
18503;SDS011;9381;54.244;10.074;2024-01-11T16:01:00;20.80;;;8.53;;
18503;SDS011;9381;54.244;10.074;2024-01-11T16:06:01;21.80;;;9.13;;
18503;SDS011;9381;54.244;10.074;2024-01-11T16:11:01;24.27;;;10.30;;
18503;SDS011;9381;54.244;10.074;2024-01-11T16:16:01;22.03;;;10.57;;
18503;SDS011;9381;54.244;10.074;2024-01-11T16:21:02;19.27;;;10.73;;
18503;SDS011;9381;54.244;10.074;2024-01-11T16:26:03;19.23;;;11.03;;
18503;SDS011;9381;54.244;10.074;2024-01-11T16:31:06;20.13;;;10.53;;
18503;SDS011;9381;54.244;10.074;2024-01-11T16:36:06;16.63;;;9.90;;
18503;SDS011;9381;54.244;10.074;2024-01-11T16:41:08;19.27;;;10.50;;
18503;SDS011;9381;54.244;10.074;2024-01-11T16:46:16;19.47;;;10.73;;
18503;SDS011;9381;54.244;10.074;2024-01-11T16:51:17;26.80;;;10.60;;
18503;SDS011;9381;54.244;10.074;2024-01-11T16:56:17;16.40;;;9.60;;
18503;SDS011;9381;54.244;10.074;2024-01-11T17:01:18;23.60;;;11.07;;
18503;SDS011;9381;54.244;10.074;2024-01-11T17:06:18;24.00;;;10.77;;
18503;SDS011;9381;54.244;10.074;2024-01-11T17:11:19;21.73;;;9.50;;
18503;SDS011;9381;54.244;10.074;2024-01-11T17:16:19;20.70;;;8.40;;
18503;SDS011;9381;54.244;10.074;2024-01-11T17:21:20;17.00;;;10.20;;
18503;SDS011;9381;54.244;10.074;2024-01-11T17:26:20;26.13;;;12.57;;
18503;SDS011;9381;54.244;10.074;2024-01-11T17:31:20;16.57;;;10.07;;
18503;SDS011;9381;54.244;10.074;2024-01-11T17:36:21;32.80;;;18.60;;
18503;SDS011;9381;54.244;10.074;2024-01-11T17:41:21;30.23;;;13.50;;
18503;SDS011;9381;54.244;10.074;2024-01-11T17:46:22;26.23;;;14.23;;
18503;SDS011;9381;54.244;10.074;2024-01-11T17:51:27;16.17;;;10.33;;
18503;SDS011;9381;54.244;10.074;2024-01-11T17:56:29;19.70;;;13.70;;
18503;SDS011;9381;54.244;10.074;2024-01-11T18:01:29;30.85;;;17.55;;
18503;SDS011;9381;54.244;10.074;2024-01-11T18:06:29;22.15;;;14.02;;
18503;SDS011;9381;54.244;10.074;2024-01-11T18:11:30;20.07;;;12.93;;
18503;SDS011;9381;54.244;10.074;2024-01-11T18:16:31;18.13;;;12.27;;
18503;SDS011;9381;54.244;10.074;2024-01-11T18:21:31;21.57;;;14.90;;
18503;SDS011;9381;54.244;10.074;2024-01-11T18:26:31;22.17;;;13.53;;
18503;SDS011;9381;54.244;10.074;2024-01-11T18:31:32;23.57;;;15.30;;
18503;SDS011;9381;54.244;10.074;2024-01-11T18:36:41;26.67;;;17.10;;
18503;SDS011;9381;54.244;10.074;2024-01-11T18:41:43;25.93;;;16.90;;
18503;SDS011;9381;54.244;10.074;2024-01-11T18:46:43;27.27;;;15.87;;
18503;SDS011;9381;54.244;10.074;2024-01-11T18:51:44;25.00;;;17.07;;
18503;SDS011;9381;54.244;10.074;2024-01-11T18:56:45;25.60;;;16.80;;
18503;SDS011;9381;54.244;10.074;2024-01-11T19:01:46;25.47;;;17.90;;
18503;SDS011;9381;54.244;10.074;2024-01-11T19:06:47;26.70;;;17.33;;
18503;SDS011;9381;54.244;10.074;2024-01-11T19:11:49;24.67;;;16.30;;
18503;SDS011;9381;54.244;10.074;2024-01-11T19:16:51;27.67;;;17.13;;
18503;SDS011;9381;54.244;10.074;2024-01-11T19:21:52;25.13;;;17.27;;
18503;SDS011;9381;54.244;10.074;2024-01-11T19:26:52;38.20;;;25.27;;
18503;SDS011;9381;54.244;10.074;2024-01-11T19:31:52;37.60;;;25.95;;
18503;SDS011;9381;54.244;10.074;2024-01-11T19:36:53;36.77;;;22.67;;
18503;SDS011;9381;54.244;10.074;2024-01-11T19:41:53;25.57;;;16.67;;
18503;SDS011;9381;54.244;10.074;2024-01-11T19:46:53;26.20;;;15.47;;
18503;SDS011;9381;54.244;10.074;2024-01-11T19:51:54;23.10;;;16.63;;
18503;SDS011;9381;54.244;10.074;2024-01-11T19:56:54;23.87;;;16.30;;
18503;SDS011;9381;54.244;10.074;2024-01-11T20:01:54;26.93;;;17.60;;
18503;SDS011;9381;54.244;10.074;2024-01-11T20:06:55;23.50;;;17.10;;
18503;SDS011;9381;54.244;10.074;2024-01-11T20:11:56;21.80;;;16.27;;
18503;SDS011;9381;54.244;10.074;2024-01-11T20:16:56;26.90;;;18.60;;
18503;SDS011;9381;54.244;10.074;2024-01-11T20:21:56;19.77;;;14.17;;
18503;SDS011;9381;54.244;10.074;2024-01-11T20:26:57;23.87;;;15.00;;
18503;SDS011;9381;54.244;10.074;2024-01-11T20:31:58;19.87;;;12.47;;
18503;SDS011;9381;54.244;10.074;2024-01-11T20:36:58;16.83;;;11.70;;
18503;SDS011;9381;54.244;10.074;2024-01-11T20:41:59;20.00;;;11.67;;
18503;SDS011;9381;54.244;10.074;2024-01-11T20:46:59;13.33;;;11.00;;
18503;SDS011;9381;54.244;10.074;2024-01-11T20:51:59;19.27;;;12.17;;
18503;SDS011;9381;54.244;10.074;2024-01-11T20:57:00;17.57;;;12.87;;
18503;SDS011;9381;54.244;10.074;2024-01-11T21:02:01;20.47;;;12.87;;
18503;SDS011;9381;54.244;10.074;2024-01-11T21:07:02;17.33;;;11.80;;
18503;SDS011;9381;54.244;10.074;2024-01-11T21:12:03;18.77;;;11.90;;
18503;SDS011;9381;54.244;10.074;2024-01-11T21:17:05;22.43;;;13.30;;
18503;SDS011;9381;54.244;10.074;2024-01-11T21:22:05;20.13;;;14.17;;
18503;SDS011;9381;54.244;10.074;2024-01-11T21:27:06;19.95;;;12.88;;
18503;SDS011;9381;54.244;10.074;2024-01-11T21:32:06;20.23;;;14.45;;
18503;SDS011;9381;54.244;10.074;2024-01-11T21:37:06;17.77;;;12.50;;
18503;SDS011;9381;54.244;10.074;2024-01-11T21:42:07;17.90;;;11.40;;
18503;SDS011;9381;54.244;10.074;2024-01-11T21:47:07;14.93;;;10.37;;
18503;SDS011;9381;54.244;10.074;2024-01-11T21:52:08;12.30;;;9.20;;
18503;SDS011;9381;54.244;10.074;2024-01-11T21:57:08;12.73;;;8.70;;
18503;SDS011;9381;54.244;10.074;2024-01-11T22:02:09;14.93;;;9.27;;
18503;SDS011;9381;54.244;10.074;2024-01-11T22:07:09;18.73;;;10.00;;
18503;SDS011;9381;54.244;10.074;2024-01-11T22:12:09;14.60;;;9.73;;
18503;SDS011;9381;54.244;10.074;2024-01-11T22:17:10;11.15;;;8.95;;
18503;SDS011;9381;54.244;10.074;2024-01-11T22:22:11;12.38;;;8.40;;
18503;SDS011;9381;54.244;10.074;2024-01-11T22:27:12;14.23;;;9.13;;
18503;SDS011;9381;54.244;10.074;2024-01-11T22:32:12;15.57;;;8.43;;
18503;SDS011;9381;54.244;10.074;2024-01-11T22:37:12;15.23;;;9.13;;
18503;SDS011;9381;54.244;10.074;2024-01-11T22:42:13;11.37;;;8.43;;
18503;SDS011;9381;54.244;10.074;2024-01-11T22:47:13;13.50;;;8.60;;
18503;SDS011;9381;54.244;10.074;2024-01-11T22:52:13;13.43;;;8.17;;
18503;SDS011;9381;54.244;10.074;2024-01-11T22:57:14;16.77;;;8.53;;
18503;SDS011;9381;54.244;10.074;2024-01-11T23:02:14;11.27;;;8.00;;
18503;SDS011;9381;54.244;10.074;2024-01-11T23:07:16;10.23;;;7.83;;
18503;SDS011;9381;54.244;10.074;2024-01-11T23:12:16;14.93;;;8.20;;
18503;SDS011;9381;54.244;10.074;2024-01-11T23:17:16;17.47;;;8.97;;
18503;SDS011;9381;54.244;10.074;2024-01-11T23:22:16;13.23;;;7.90;;
18503;SDS011;9381;54.244;10.074;2024-01-11T23:27:17;10.93;;;7.47;;
18503;SDS011;9381;54.244;10.074;2024-01-11T23:32:17;9.88;;;7.38;;
18503;SDS011;9381;54.244;10.074;2024-01-11T23:37:17;13.05;;;8.80;;
18503;SDS011;9381;54.244;10.074;2024-01-11T23:42:18;14.67;;;8.63;;
18503;SDS011;9381;54.244;10.074;2024-01-11T23:47:18;12.43;;;9.73;;
18503;SDS011;9381;54.244;10.074;2024-01-11T23:52:19;15.93;;;9.23;;
18503;SDS011;9381;54.244;10.074;2024-01-11T23:57:19;15.32;;;9.20;;
